createdAt,value
2018-03-20T00:00:24.333Z,949.06
2018-03-20T00:01:24.338Z,949.06
2018-03-20T00:02:24.343Z,949.08
2018-03-20T00:03:24.344Z,949.03
2018-03-20T00:04:24.346Z,949.00
2018-03-20T00:05:24.349Z,949.01
2018-03-20T00:06:24.350Z,949.02
2018-03-20T00:07:24.403Z,948.99
2018-03-20T00:08:24.357Z,949.03
2018-03-20T00:09:24.371Z,949.03
2018-03-20T00:10:24.361Z,949.03
2018-03-20T00:11:24.365Z,949.04
2018-03-20T00:12:24.367Z,949.01
2018-03-20T00:13:24.376Z,949.00
2018-03-20T00:14:24.380Z,949.02
2018-03-20T00:15:24.551Z,949.04
2018-03-20T00:16:24.380Z,949.05
2018-03-20T00:17:24.490Z,949.06
2018-03-20T00:18:24.382Z,949.09
2018-03-20T00:19:24.383Z,949.10
2018-03-20T00:20:24.387Z,949.11
2018-03-20T00:21:24.395Z,949.09
2018-03-20T00:22:24.391Z,949.12
2018-03-20T00:23:25.103Z,949.11
2018-03-20T00:24:24.396Z,949.14
2018-03-20T00:25:24.401Z,949.14
2018-03-20T00:26:24.403Z,949.12
2018-03-20T00:27:24.406Z,949.10
2018-03-20T00:28:24.417Z,949.12
2018-03-20T00:29:24.409Z,949.09
2018-03-20T00:30:24.412Z,949.19
2018-03-20T00:31:24.414Z,949.16
2018-03-20T00:32:24.560Z,949.17
2018-03-20T00:33:24.424Z,949.19
2018-03-20T00:34:24.422Z,949.21
2018-03-20T00:35:24.433Z,949.23
2018-03-20T00:36:24.427Z,949.24
2018-03-20T00:37:24.428Z,949.24
2018-03-20T00:38:24.432Z,949.27
2018-03-20T00:39:24.593Z,949.21
2018-03-20T00:40:24.437Z,949.22
2018-03-20T00:41:24.621Z,949.24
2018-03-20T00:42:24.443Z,949.22
2018-03-20T00:43:24.444Z,949.22
2018-03-20T00:44:24.447Z,949.24
2018-03-20T00:45:24.451Z,949.28
2018-03-20T00:46:24.455Z,949.27
2018-03-20T00:47:24.464Z,949.26
2018-03-20T00:48:24.461Z,949.27
2018-03-20T00:49:24.463Z,949.26
2018-03-20T00:50:24.466Z,949.25
2018-03-20T00:51:24.465Z,949.28
2018-03-20T00:52:24.471Z,949.25
2018-03-20T00:53:24.483Z,949.25
2018-03-20T00:54:24.473Z,949.22
2018-03-20T00:55:24.478Z,949.26
2018-03-20T00:56:24.479Z,949.22
2018-03-20T00:57:24.480Z,949.24
2018-03-20T00:58:24.482Z,949.26
2018-03-20T00:59:24.492Z,949.23
2018-03-20T01:00:24.487Z,949.24
2018-03-20T01:01:24.490Z,949.22
2018-03-20T01:02:24.494Z,949.27
2018-03-20T01:03:24.500Z,949.25
2018-03-20T01:04:24.499Z,949.25
2018-03-20T01:05:24.510Z,949.24
2018-03-20T01:06:24.500Z,949.24
2018-03-20T01:07:24.511Z,949.29
2018-03-20T01:08:24.509Z,949.28
2018-03-20T01:09:24.517Z,949.26
2018-03-20T01:10:24.512Z,949.27
2018-03-20T01:11:24.515Z,949.27
2018-03-20T01:12:24.523Z,949.26
2018-03-20T01:13:24.521Z,949.26
2018-03-20T01:14:24.524Z,949.29
2018-03-20T01:15:24.526Z,949.22
2018-03-20T01:16:24.529Z,949.26
2018-03-20T01:17:24.529Z,949.25
2018-03-20T01:18:24.534Z,949.21
2018-03-20T01:19:24.537Z,949.21
2018-03-20T01:20:24.536Z,949.22
2018-03-20T01:21:24.540Z,949.21
2018-03-20T01:22:24.541Z,949.21
2018-03-20T01:23:24.545Z,949.24
2018-03-20T01:24:24.553Z,949.25
2018-03-20T01:25:24.547Z,949.26
2018-03-20T01:26:24.553Z,949.26
2018-03-20T01:27:24.552Z,949.25
2018-03-20T01:28:24.556Z,949.27
2018-03-20T01:29:24.561Z,949.23
2018-03-20T01:30:24.567Z,949.22
2018-03-20T01:31:24.563Z,949.24
2018-03-20T01:32:24.567Z,949.25
2018-03-20T01:33:24.568Z,949.25
2018-03-20T01:34:24.567Z,949.23
2018-03-20T01:35:24.573Z,949.19
2018-03-20T01:36:24.579Z,949.18
2018-03-20T01:37:24.578Z,949.17
2018-03-20T01:38:24.578Z,949.20
2018-03-20T01:39:24.581Z,949.17
2018-03-20T01:40:24.584Z,949.14
2018-03-20T01:41:24.588Z,949.17
2018-03-20T01:42:24.594Z,949.14
2018-03-20T01:43:24.591Z,949.14
2018-03-20T01:44:24.589Z,949.14
2018-03-20T01:45:24.597Z,949.16
2018-03-20T01:46:24.598Z,949.17
2018-03-20T01:47:24.597Z,949.15
2018-03-20T01:48:24.607Z,949.12
2018-03-20T01:49:24.606Z,949.12
2018-03-20T01:50:24.605Z,949.11
2018-03-20T01:51:24.605Z,949.05
2018-03-20T01:52:24.611Z,949.03
2018-03-20T01:53:24.612Z,949.03
2018-03-20T01:54:24.622Z,949.01
2018-03-20T01:55:24.615Z,949.05
2018-03-20T01:56:24.619Z,949.02
2018-03-20T01:57:24.620Z,949.02
2018-03-20T01:58:24.621Z,949.03
2018-03-20T01:59:24.625Z,949.00
2018-03-20T02:00:24.634Z,949.06
2018-03-20T02:01:24.627Z,949.06
2018-03-20T02:02:24.633Z,949.03
2018-03-20T02:03:24.636Z,949.07
2018-03-20T02:04:24.637Z,949.04
2018-03-20T02:05:24.639Z,949.06
2018-03-20T02:06:24.646Z,949.08
2018-03-20T02:07:24.644Z,949.05
2018-03-20T02:08:24.645Z,949.04
2018-03-20T02:09:24.648Z,949.06
2018-03-20T02:10:24.650Z,949.09
2018-03-20T02:11:24.651Z,949.11
2018-03-20T02:12:24.654Z,949.08
2018-03-20T02:13:24.656Z,949.09
2018-03-20T02:14:24.659Z,949.10
2018-03-20T02:15:24.658Z,949.12
2018-03-20T02:16:24.663Z,949.13
2018-03-20T02:17:24.671Z,949.13
2018-03-20T02:18:24.668Z,949.09
2018-03-20T02:19:24.668Z,949.10
2018-03-20T02:20:24.677Z,949.13
2018-03-20T02:21:24.674Z,949.12
2018-03-20T02:22:24.674Z,949.10
2018-03-20T02:23:24.685Z,949.10
2018-03-20T02:24:24.680Z,949.11
2018-03-20T02:25:24.682Z,949.14
2018-03-20T02:26:24.683Z,949.14
2018-03-20T02:27:24.687Z,949.15
2018-03-20T02:28:24.690Z,949.14
2018-03-20T02:29:24.702Z,949.16
2018-03-20T02:30:24.702Z,949.21
2018-03-20T02:31:24.698Z,949.18
2018-03-20T02:32:24.698Z,949.19
2018-03-20T02:33:24.700Z,949.23
2018-03-20T02:34:24.703Z,949.18
2018-03-20T02:35:24.727Z,949.17
2018-03-20T02:36:24.708Z,949.17
2018-03-20T02:37:24.713Z,949.17
2018-03-20T02:38:24.713Z,949.19
2018-03-20T02:39:24.850Z,949.18
2018-03-20T02:40:24.719Z,949.21
2018-03-20T02:41:24.718Z,949.20
2018-03-20T02:42:24.726Z,949.22
2018-03-20T02:43:24.721Z,949.19
2018-03-20T02:44:24.725Z,949.23
2018-03-20T02:45:24.729Z,949.25
2018-03-20T02:46:24.727Z,949.26
2018-03-20T02:47:24.734Z,949.20
2018-03-20T02:48:24.736Z,949.23
2018-03-20T02:49:24.745Z,949.22
2018-03-20T02:50:24.738Z,949.26
2018-03-20T02:51:24.740Z,949.25
2018-03-20T02:52:24.745Z,949.29
2018-03-20T02:53:24.745Z,949.29
2018-03-20T02:54:24.809Z,949.29
2018-03-20T02:55:24.750Z,949.31
2018-03-20T02:56:24.755Z,949.28
2018-03-20T02:57:24.755Z,949.34
2018-03-20T02:58:24.757Z,949.31
2018-03-20T02:59:24.766Z,949.33
2018-03-20T03:00:24.772Z,949.35
2018-03-20T03:01:24.764Z,949.33
2018-03-20T03:02:24.768Z,949.36
2018-03-20T03:03:24.770Z,949.37
2018-03-20T03:04:24.774Z,949.36
2018-03-20T03:05:24.777Z,949.36
2018-03-20T03:06:24.780Z,949.34
2018-03-20T03:07:24.780Z,949.36
2018-03-20T03:08:24.781Z,949.37
2018-03-20T03:09:24.799Z,949.38
2018-03-20T03:10:24.784Z,949.39
2018-03-20T03:11:24.787Z,949.42
2018-03-20T03:12:24.793Z,949.40
2018-03-20T03:13:24.790Z,949.42
2018-03-20T03:14:24.792Z,949.45
2018-03-20T03:15:24.795Z,949.46
2018-03-20T03:16:24.801Z,949.45
2018-03-20T03:17:24.801Z,949.43
2018-03-20T03:18:24.807Z,949.43
2018-03-20T03:19:24.807Z,949.46
2018-03-20T03:20:24.812Z,949.46
2018-03-20T03:21:24.811Z,949.46
2018-03-20T03:22:24.813Z,949.47
2018-03-20T03:23:24.815Z,949.49
2018-03-20T03:24:24.824Z,949.50
2018-03-20T03:25:24.820Z,949.51
2018-03-20T03:26:24.821Z,949.54
2018-03-20T03:27:24.824Z,949.50
2018-03-20T03:28:24.827Z,949.55
2018-03-20T03:29:24.830Z,949.57
2018-03-20T03:30:24.837Z,949.56
2018-03-20T03:31:24.834Z,949.56
2018-03-20T03:32:24.839Z,949.58
2018-03-20T03:33:24.846Z,949.61
2018-03-20T03:34:24.844Z,949.57
2018-03-20T03:35:24.844Z,949.60
2018-03-20T03:36:24.852Z,949.63
2018-03-20T03:37:24.850Z,949.63
2018-03-20T03:38:24.858Z,949.62
2018-03-20T03:39:24.853Z,949.64
2018-03-20T03:40:24.855Z,949.65
2018-03-20T03:41:24.858Z,949.71
2018-03-20T03:42:24.871Z,949.71
2018-03-20T03:43:24.864Z,949.74
2018-03-20T03:44:24.866Z,949.73
2018-03-20T03:45:24.868Z,949.71
2018-03-20T03:46:24.872Z,949.73
2018-03-20T03:47:24.871Z,949.72
2018-03-20T03:48:24.877Z,949.74
2018-03-20T03:49:24.876Z,949.75
2018-03-20T03:50:24.880Z,949.77
2018-03-20T03:51:24.882Z,949.81
2018-03-20T03:52:24.884Z,949.79
2018-03-20T03:53:24.944Z,949.80
2018-03-20T03:54:24.898Z,949.81
2018-03-20T03:55:24.890Z,949.84
2018-03-20T03:56:24.894Z,949.87
2018-03-20T03:57:24.894Z,949.85
2018-03-20T03:58:24.897Z,949.85
2018-03-20T03:59:24.901Z,949.81
2018-03-20T04:00:24.909Z,949.86
2018-03-20T04:01:24.958Z,949.87
2018-03-20T04:02:24.906Z,949.85
2018-03-20T04:03:24.909Z,949.80
2018-03-20T04:04:24.911Z,949.83
2018-03-20T04:05:24.916Z,949.84
2018-03-20T04:06:24.922Z,949.83
2018-03-20T04:07:24.918Z,949.82
2018-03-20T04:08:24.922Z,949.85
2018-03-20T04:09:24.925Z,949.88
2018-03-20T04:10:24.952Z,949.88
2018-03-20T04:11:24.928Z,949.86
2018-03-20T04:12:24.942Z,949.89
2018-03-20T04:13:24.933Z,949.90
2018-03-20T04:14:24.940Z,949.91
2018-03-20T04:15:24.940Z,949.93
2018-03-20T04:16:24.941Z,949.94
2018-03-20T04:17:24.944Z,949.90
2018-03-20T04:18:24.956Z,949.95
2018-03-20T04:19:24.951Z,949.92
2018-03-20T04:20:24.950Z,949.92
2018-03-20T04:21:24.952Z,949.95
2018-03-20T04:22:24.952Z,949.95
2018-03-20T04:23:24.955Z,949.97
2018-03-20T04:24:24.970Z,949.98
2018-03-20T04:25:24.962Z,949.96
2018-03-20T04:26:24.964Z,949.96
2018-03-20T04:27:24.968Z,949.99
2018-03-20T04:28:24.970Z,950.00
2018-03-20T04:29:24.971Z,950.00
2018-03-20T04:30:24.984Z,949.98
2018-03-20T04:31:24.976Z,949.96
2018-03-20T04:32:24.978Z,950.00
2018-03-20T04:33:24.984Z,950.00
2018-03-20T04:34:25.352Z,950.02
2018-03-20T04:35:24.986Z,950.05
2018-03-20T04:36:24.996Z,950.01
2018-03-20T04:37:24.992Z,950.02
2018-03-20T04:38:24.995Z,950.03
2018-03-20T04:39:25.003Z,950.06
2018-03-20T04:40:24.996Z,950.06
2018-03-20T04:41:24.999Z,950.07
2018-03-20T04:42:25.011Z,950.09
2018-03-20T04:43:25.006Z,950.10
2018-03-20T04:44:25.015Z,950.10
2018-03-20T04:45:25.010Z,950.12
2018-03-20T04:46:25.013Z,950.11
2018-03-20T04:47:25.015Z,950.12
2018-03-20T04:48:25.023Z,950.11
2018-03-20T04:49:25.022Z,950.13
2018-03-20T04:50:25.023Z,950.14
2018-03-20T04:51:25.024Z,950.12
2018-03-20T04:52:25.026Z,950.14
2018-03-20T04:53:25.031Z,950.13
2018-03-20T04:54:25.038Z,950.17
2018-03-20T04:55:25.033Z,950.18
2018-03-20T04:56:25.036Z,950.16
2018-03-20T04:57:25.040Z,950.17
2018-03-20T04:58:25.044Z,950.16
2018-03-20T04:59:25.070Z,950.17
2018-03-20T05:00:25.046Z,950.13
2018-03-20T05:01:25.054Z,950.15
2018-03-20T05:02:25.051Z,950.16
2018-03-20T05:03:25.052Z,950.14
2018-03-20T05:04:25.057Z,950.11
2018-03-20T05:05:25.058Z,950.18
2018-03-20T05:06:25.061Z,950.13
2018-03-20T05:07:25.070Z,950.14
2018-03-20T05:08:25.065Z,950.17
2018-03-20T05:09:25.070Z,950.21
2018-03-20T05:10:25.073Z,950.19
2018-03-20T05:11:25.072Z,950.21
2018-03-20T05:12:25.075Z,950.23
2018-03-20T05:13:25.088Z,950.26
2018-03-20T05:14:25.081Z,950.25
2018-03-20T05:15:25.084Z,950.29
2018-03-20T05:16:25.087Z,950.33
2018-03-20T05:17:25.086Z,950.31
2018-03-20T05:18:25.091Z,950.29
2018-03-20T05:19:25.098Z,950.31
2018-03-20T05:20:25.095Z,950.37
2018-03-20T05:21:25.096Z,950.36
2018-03-20T05:22:25.101Z,950.35
2018-03-20T05:23:25.102Z,950.38
2018-03-20T05:24:25.105Z,950.40
2018-03-20T05:25:25.121Z,950.36
2018-03-20T05:26:25.110Z,950.39
2018-03-20T05:27:25.111Z,950.37
2018-03-20T05:28:25.116Z,950.38
2018-03-20T05:29:25.118Z,950.41
2018-03-20T05:30:25.119Z,950.40
2018-03-20T05:31:25.128Z,950.45
2018-03-20T05:32:25.126Z,950.43
2018-03-20T05:33:25.129Z,950.45
2018-03-20T05:34:25.128Z,950.49
2018-03-20T05:35:25.133Z,950.46
2018-03-20T05:36:25.133Z,950.50
2018-03-20T05:37:25.142Z,950.50
2018-03-20T05:38:25.147Z,950.51
2018-03-20T05:39:25.192Z,950.51
2018-03-20T05:40:25.144Z,950.55
2018-03-20T05:41:25.147Z,950.57
2018-03-20T05:42:25.147Z,950.58
2018-03-20T05:43:25.160Z,950.58
2018-03-20T05:44:25.153Z,950.58
2018-03-20T05:45:25.157Z,950.60
2018-03-20T05:46:25.161Z,950.62
2018-03-20T05:47:25.163Z,950.64
2018-03-20T05:48:25.165Z,950.66
2018-03-20T05:49:25.214Z,950.66
2018-03-20T05:50:25.166Z,950.66
2018-03-20T05:51:25.169Z,950.69
2018-03-20T05:52:25.172Z,950.63
2018-03-20T05:53:25.181Z,950.70
2018-03-20T05:54:25.179Z,950.73
2018-03-20T05:55:25.187Z,950.71
2018-03-20T05:56:25.186Z,950.74
2018-03-20T05:57:25.188Z,950.77
2018-03-20T05:58:25.186Z,950.74
2018-03-20T05:59:25.190Z,950.77
2018-03-20T06:00:25.194Z,950.82
2018-03-20T06:01:25.195Z,950.81
2018-03-20T06:02:25.201Z,950.83
2018-03-20T06:03:25.200Z,950.87
2018-03-20T06:04:25.202Z,950.86
2018-03-20T06:05:25.209Z,950.85
2018-03-20T06:06:25.208Z,950.91
2018-03-20T06:07:25.211Z,950.90
2018-03-20T06:08:25.222Z,950.93
2018-03-20T06:09:25.218Z,950.93
2018-03-20T06:10:25.218Z,950.96
2018-03-20T06:11:25.220Z,950.94
2018-03-20T06:12:25.227Z,950.96
2018-03-20T06:13:25.225Z,950.96
2018-03-20T06:14:25.234Z,950.97
2018-03-20T06:15:25.241Z,950.99
2018-03-20T06:16:25.232Z,951.04
2018-03-20T06:17:25.238Z,951.07
2018-03-20T06:18:25.237Z,951.07
2018-03-20T06:19:25.241Z,951.10
2018-03-20T06:20:25.249Z,951.11
2018-03-20T06:21:25.245Z,951.12
2018-03-20T06:22:25.249Z,951.13
2018-03-20T06:23:25.251Z,951.14
2018-03-20T06:24:25.253Z,951.14
2018-03-20T06:25:25.260Z,951.18
2018-03-20T06:26:25.266Z,951.18
2018-03-20T06:27:25.263Z,951.20
2018-03-20T06:28:25.264Z,951.20
2018-03-20T06:29:25.268Z,951.25
2018-03-20T06:30:25.276Z,951.24
2018-03-20T06:31:25.271Z,951.26
2018-03-20T06:32:25.285Z,951.22
2018-03-20T06:33:25.277Z,951.24
2018-03-20T06:34:25.282Z,951.23
2018-03-20T06:35:25.284Z,951.25
2018-03-20T06:36:25.289Z,951.26
2018-03-20T06:37:25.291Z,951.28
2018-03-20T06:38:25.306Z,951.29
2018-03-20T06:39:25.347Z,951.37
2018-03-20T06:40:25.299Z,951.36
2018-03-20T06:41:25.302Z,951.38
2018-03-20T06:42:25.306Z,951.42
2018-03-20T06:43:25.306Z,951.46
2018-03-20T06:44:25.318Z,951.44
2018-03-20T06:45:25.315Z,951.48
2018-03-20T06:46:25.314Z,951.45
2018-03-20T06:47:25.319Z,951.48
2018-03-20T06:48:25.322Z,951.47
2018-03-20T06:49:25.326Z,951.48
2018-03-20T06:50:25.338Z,951.48
2018-03-20T06:51:25.331Z,951.52
2018-03-20T06:52:25.335Z,951.54
2018-03-20T06:53:25.339Z,951.52
2018-03-20T06:54:25.338Z,951.58
2018-03-20T06:55:25.343Z,951.56
2018-03-20T06:56:25.352Z,951.59
2018-03-20T06:57:25.346Z,951.63
2018-03-20T06:58:25.353Z,951.62
2018-03-20T06:59:25.400Z,951.62
2018-03-20T07:00:25.360Z,951.66
2018-03-20T07:01:25.363Z,951.65
2018-03-20T07:02:25.367Z,951.66
2018-03-20T07:03:25.368Z,951.70
2018-03-20T07:04:25.370Z,951.72
2018-03-20T07:05:25.375Z,951.71
2018-03-20T07:06:25.376Z,951.74
2018-03-20T07:07:25.379Z,951.80
2018-03-20T07:08:25.391Z,951.84
2018-03-20T07:09:25.390Z,951.85
2018-03-20T07:10:25.390Z,951.84
2018-03-20T07:11:25.396Z,951.88
2018-03-20T07:12:25.398Z,951.83
2018-03-20T07:13:25.399Z,951.85
2018-03-20T07:14:25.423Z,951.85
2018-03-20T07:15:25.406Z,951.86
2018-03-20T07:16:25.412Z,951.89
2018-03-20T07:17:25.411Z,951.93
2018-03-20T07:18:25.417Z,951.94
2018-03-20T07:19:25.464Z,951.93
2018-03-20T07:20:25.428Z,951.98
2018-03-20T07:21:25.424Z,951.97
2018-03-20T07:22:25.440Z,952.01
2018-03-20T07:23:25.434Z,952.03
2018-03-20T07:24:25.439Z,952.04
2018-03-20T07:25:25.441Z,952.09
2018-03-20T07:26:25.448Z,952.08
2018-03-20T07:27:25.447Z,952.09
2018-03-20T07:28:25.460Z,952.07
2018-03-20T07:29:25.477Z,952.09
2018-03-20T07:30:25.457Z,952.08
2018-03-20T07:31:25.458Z,952.06
2018-03-20T07:32:25.475Z,952.06
2018-03-20T07:33:25.468Z,952.15
2018-03-20T07:34:25.524Z,952.17
2018-03-20T07:35:25.482Z,952.18
2018-03-20T07:36:25.478Z,952.16
2018-03-20T07:37:25.488Z,952.18
2018-03-20T07:38:25.494Z,952.18
2018-03-20T07:39:25.513Z,952.19
2018-03-20T07:40:25.493Z,952.20
2018-03-20T07:41:25.502Z,952.21
2018-03-20T07:42:25.504Z,952.26
2018-03-20T07:43:25.504Z,952.21
2018-03-20T07:44:25.514Z,952.15
2018-03-20T07:45:25.518Z,952.16
2018-03-20T07:46:25.516Z,952.26
2018-03-20T07:47:25.519Z,952.27
2018-03-20T07:48:25.579Z,952.25
2018-03-20T07:49:25.569Z,952.25
2018-03-20T07:50:25.533Z,952.21
2018-03-20T07:51:25.548Z,952.25
2018-03-20T07:52:25.637Z,952.22
2018-03-20T07:53:25.544Z,952.20
2018-03-20T07:54:25.543Z,952.24
2018-03-20T07:55:25.550Z,952.28
2018-03-20T07:56:25.630Z,952.30
2018-03-20T07:57:25.768Z,952.29
2018-03-20T07:58:25.559Z,952.34
2018-03-20T07:59:25.598Z,952.39
2018-03-20T08:00:25.566Z,952.40
2018-03-20T08:01:25.576Z,952.43
2018-03-20T08:02:25.574Z,952.45
2018-03-20T08:03:25.586Z,952.48
2018-03-20T08:04:25.578Z,952.55
2018-03-20T08:05:25.590Z,952.61
2018-03-20T08:06:25.589Z,952.66
2018-03-20T08:07:25.592Z,952.61
2018-03-20T08:08:25.602Z,952.63
2018-03-20T08:09:25.635Z,952.66
2018-03-20T08:10:25.603Z,952.62
2018-03-20T08:11:25.608Z,952.60
2018-03-20T08:12:25.612Z,952.65
2018-03-20T08:13:25.616Z,952.62
2018-03-20T08:14:25.623Z,952.59
2018-03-20T08:15:25.628Z,952.64
2018-03-20T08:16:25.626Z,952.65
2018-03-20T08:17:25.634Z,952.65
2018-03-20T08:18:25.636Z,952.72
2018-03-20T08:19:25.703Z,952.76
2018-03-20T08:20:25.644Z,952.74
2018-03-20T08:21:25.655Z,952.73
2018-03-20T08:22:25.654Z,952.81
2018-03-20T08:23:25.661Z,952.78
2018-03-20T08:24:25.675Z,952.77
2018-03-20T08:25:25.666Z,952.82
2018-03-20T08:26:25.669Z,952.81
2018-03-20T08:27:25.678Z,952.77
2018-03-20T08:28:25.682Z,952.76
2018-03-20T08:29:25.689Z,952.74
2018-03-20T08:30:25.688Z,952.70
2018-03-20T08:31:25.692Z,952.68
2018-03-20T08:32:25.698Z,952.69
2018-03-20T08:33:25.705Z,952.66
2018-03-20T08:34:25.711Z,952.64
2018-03-20T08:35:25.708Z,952.64
2018-03-20T08:36:25.715Z,952.69
2018-03-20T08:37:25.721Z,952.70
2018-03-20T08:38:25.729Z,952.70
2018-03-20T08:39:25.733Z,952.67
2018-03-20T08:40:25.734Z,952.70
2018-03-20T08:41:25.741Z,952.73
2018-03-20T08:42:25.745Z,952.76
2018-03-20T08:43:25.748Z,952.78
2018-03-20T08:44:25.807Z,952.78
2018-03-20T08:45:25.760Z,952.76
2018-03-20T08:46:25.758Z,952.76
2018-03-20T08:47:25.765Z,952.75
2018-03-20T08:48:25.769Z,952.77
2018-03-20T08:49:25.816Z,952.74
2018-03-20T08:50:25.785Z,952.73
2018-03-20T08:51:25.784Z,952.70
2018-03-20T08:52:25.796Z,952.73
2018-03-20T08:53:25.796Z,952.71
2018-03-20T08:54:25.797Z,952.73
2018-03-20T08:55:25.804Z,952.73
2018-03-20T08:56:25.815Z,952.78
2018-03-20T08:57:25.812Z,952.84
2018-03-20T08:58:25.814Z,952.91
2018-03-20T08:59:25.823Z,952.92
2018-03-20T09:00:25.825Z,952.90
2018-03-20T09:01:25.830Z,952.94
2018-03-20T09:02:25.838Z,952.91
2018-03-20T09:03:25.844Z,952.91
2018-03-20T09:04:25.843Z,952.89
2018-03-20T09:05:25.858Z,952.85
2018-03-20T09:06:25.857Z,952.88
2018-03-20T09:07:25.857Z,952.90
2018-03-20T09:08:25.889Z,952.93
2018-03-20T09:09:25.868Z,952.88
2018-03-20T09:10:25.870Z,952.86
2018-03-20T09:11:25.875Z,952.88
2018-03-20T09:12:25.929Z,952.86
2018-03-20T09:13:25.885Z,952.89
2018-03-20T09:14:25.894Z,952.91
2018-03-20T09:15:25.896Z,952.97
2018-03-20T09:16:25.900Z,953.01
2018-03-20T09:17:25.904Z,953.03
2018-03-20T09:18:25.912Z,953.06
2018-03-20T09:19:25.910Z,953.09
2018-03-20T09:20:25.924Z,953.07
2018-03-20T09:21:25.923Z,953.03
2018-03-20T09:22:25.924Z,953.05
2018-03-20T09:23:25.932Z,953.04
2018-03-20T09:24:25.945Z,952.97
2018-03-20T09:25:25.940Z,952.96
2018-03-20T09:26:25.953Z,952.92
2018-03-20T09:27:25.958Z,952.91
2018-03-20T09:28:25.954Z,952.87
2018-03-20T09:29:25.963Z,952.88
2018-03-20T09:30:25.963Z,952.92
2018-03-20T09:31:25.966Z,952.95
2018-03-20T09:32:25.976Z,952.96
2018-03-20T09:33:25.977Z,952.98
2018-03-20T09:34:25.982Z,952.95
2018-03-20T09:35:26.010Z,952.98
2018-03-20T09:36:25.992Z,952.97
2018-03-20T09:37:25.994Z,953.04
2018-03-20T09:38:26.003Z,953.08
2018-03-20T09:39:26.002Z,953.14
2018-03-20T09:40:26.007Z,953.12
2018-03-20T09:41:26.013Z,953.12
2018-03-20T09:42:26.021Z,953.11
2018-03-20T09:43:26.052Z,953.12
2018-03-20T09:44:26.035Z,953.13
2018-03-20T09:45:26.034Z,953.22
2018-03-20T09:46:26.035Z,953.29
2018-03-20T09:47:26.038Z,953.32
2018-03-20T09:48:26.046Z,953.29
2018-03-20T09:49:26.055Z,953.24
2018-03-20T09:50:26.065Z,953.26
2018-03-20T09:51:26.059Z,953.26
2018-03-20T09:52:26.069Z,953.31
2018-03-20T09:53:26.070Z,953.28
2018-03-20T09:54:26.073Z,953.33
2018-03-20T09:55:26.079Z,953.36
2018-03-20T09:56:26.090Z,953.39
2018-03-20T09:57:26.092Z,953.36
2018-03-20T09:58:26.093Z,953.21
2018-03-20T09:59:26.099Z,953.13
2018-03-20T10:00:26.106Z,953.10
2018-03-20T10:01:26.109Z,953.08
2018-03-20T10:02:26.125Z,953.06
2018-03-20T10:03:26.118Z,953.05
2018-03-20T10:04:26.123Z,953.08
2018-03-20T10:05:26.128Z,953.09
2018-03-20T10:06:26.137Z,953.14
2018-03-20T10:07:26.136Z,953.16
2018-03-20T10:08:26.148Z,953.16
2018-03-20T10:09:26.146Z,953.18
2018-03-20T10:10:26.152Z,953.23
2018-03-20T10:11:26.156Z,953.23
2018-03-20T10:12:26.159Z,953.27
2018-03-20T10:13:26.165Z,953.24
2018-03-20T10:14:26.179Z,953.24
2018-03-20T10:15:26.178Z,953.14
2018-03-20T10:16:26.183Z,953.10
2018-03-20T10:17:26.190Z,953.05
2018-03-20T10:18:26.191Z,953.11
2018-03-20T10:19:26.252Z,953.07
2018-03-20T10:20:26.206Z,953.07
2018-03-20T10:21:26.206Z,953.04
2018-03-20T10:22:26.209Z,953.06
2018-03-20T10:23:26.212Z,953.02
2018-03-20T10:24:26.218Z,953.03
2018-03-20T10:25:26.224Z,953.08
2018-03-20T10:26:26.234Z,953.09
2018-03-20T10:27:26.231Z,953.10
2018-03-20T10:28:26.247Z,953.12
2018-03-20T10:29:26.241Z,953.17
2018-03-20T10:30:26.245Z,953.16
2018-03-20T10:31:26.557Z,953.21
2018-03-20T10:32:26.264Z,953.20
2018-03-20T10:33:26.263Z,953.19
2018-03-20T10:34:26.266Z,953.22
2018-03-20T10:35:26.276Z,953.23
2018-03-20T10:36:26.280Z,953.22
2018-03-20T10:37:26.283Z,953.24
2018-03-20T10:38:26.290Z,953.25
2018-03-20T10:39:26.291Z,953.26
2018-03-20T10:40:26.297Z,953.25
2018-03-20T10:41:26.365Z,953.24
2018-03-20T10:42:26.304Z,953.24
2018-03-20T10:43:26.312Z,953.27
2018-03-20T10:44:26.319Z,953.32
2018-03-20T10:45:26.323Z,953.33
2018-03-20T10:46:26.326Z,953.37
2018-03-20T10:47:26.333Z,953.40
2018-03-20T10:48:26.344Z,953.35
2018-03-20T10:49:26.346Z,953.36
2018-03-20T10:50:26.356Z,953.41
2018-03-20T10:51:26.358Z,953.40
2018-03-20T10:52:26.364Z,953.46
2018-03-20T10:53:26.373Z,953.42
2018-03-20T10:54:26.378Z,953.41
2018-03-20T10:55:26.405Z,953.45
2018-03-20T10:56:26.396Z,953.41
2018-03-20T10:57:26.397Z,953.45
2018-03-20T10:58:26.405Z,953.47
2018-03-20T10:59:26.420Z,953.48
2018-03-20T11:00:26.419Z,953.36
2018-03-20T11:01:26.426Z,953.53
2018-03-20T11:02:26.438Z,953.52
2018-03-20T11:03:26.440Z,953.40
2018-03-20T11:04:26.449Z,953.43
2018-03-20T11:05:26.455Z,953.53
2018-03-20T11:06:26.463Z,953.60
2018-03-20T11:07:26.470Z,953.46
2018-03-20T11:08:26.490Z,953.52
2018-03-20T11:09:26.506Z,953.49
2018-03-20T11:10:26.533Z,953.49
2018-03-20T11:11:26.503Z,953.45
2018-03-20T11:12:26.517Z,953.56
2018-03-20T11:13:26.517Z,953.53
2018-03-20T11:14:26.552Z,953.69
2018-03-20T11:15:26.539Z,953.57
2018-03-20T11:16:26.544Z,953.55
2018-03-20T11:17:26.551Z,953.56
2018-03-20T11:18:26.560Z,953.81
2018-03-20T11:19:26.566Z,953.77
2018-03-20T11:20:26.589Z,953.94
2018-03-20T11:21:26.577Z,954.04
2018-03-20T11:22:26.598Z,954.04
2018-03-20T11:23:26.599Z,954.11
2018-03-20T11:24:26.629Z,954.14
2018-03-20T11:25:26.620Z,954.15
2018-03-20T11:26:26.628Z,954.11
2018-03-20T11:27:26.629Z,954.17
2018-03-20T11:28:26.641Z,954.20
2018-03-20T11:29:26.660Z,954.12
2018-03-20T11:30:26.660Z,954.05
2018-03-20T11:31:26.669Z,954.05
2018-03-20T11:32:26.679Z,954.03
2018-03-20T11:33:26.693Z,954.12
2018-03-20T11:34:26.700Z,954.20
2018-03-20T11:35:26.707Z,954.24
2018-03-20T11:36:26.716Z,954.30
2018-03-20T11:37:26.738Z,954.34
2018-03-20T11:38:26.741Z,954.42
2018-03-20T11:39:26.750Z,954.51
2018-03-20T11:40:26.782Z,954.53
2018-03-20T11:41:26.784Z,954.55
2018-03-20T11:42:26.787Z,954.77
2018-03-20T11:43:26.797Z,954.92
2018-03-20T11:44:26.807Z,955.04
2018-03-20T11:45:26.825Z,955.05
2018-03-20T11:46:26.847Z,954.99
2018-03-20T11:47:26.851Z,955.04
2018-03-20T11:48:26.861Z,955.10
2018-03-20T11:49:26.873Z,955.13
2018-03-20T11:50:26.886Z,955.12
2018-03-20T11:51:26.899Z,955.01
2018-03-20T11:52:26.912Z,954.99
2018-03-20T11:53:26.947Z,954.88
2018-03-20T11:54:26.986Z,954.94
2018-03-20T11:55:26.953Z,955.12
2018-03-20T11:56:26.968Z,955.28
2018-03-20T11:57:29.772Z,955.20
2018-03-20T11:58:26.998Z,955.12
2018-03-20T11:59:27.020Z,954.98
2018-03-20T12:00:27.030Z,954.79
2018-03-20T12:01:27.042Z,954.66
2018-03-20T12:02:27.062Z,954.78
2018-03-20T12:03:27.073Z,954.83
2018-03-20T12:04:27.086Z,954.84
2018-03-20T12:05:27.105Z,954.96
2018-03-20T12:06:27.117Z,954.86
2018-03-20T12:07:27.138Z,954.72
2018-03-20T12:08:27.146Z,954.78
2018-03-20T12:09:27.160Z,953.83
2018-03-20T12:10:27.176Z,953.81
2018-03-20T12:11:27.193Z,953.83
2018-03-20T12:12:27.204Z,953.86
2018-03-20T12:13:27.227Z,953.76
2018-03-20T12:14:27.234Z,953.79
2018-03-20T12:15:27.248Z,953.94
2018-03-20T12:16:27.264Z,954.60
2018-03-20T12:17:27.276Z,953.79
2018-03-20T12:18:27.287Z,953.88
2018-03-20T12:19:27.307Z,955.13
2018-03-20T12:20:27.309Z,955.78
2018-03-20T12:21:27.325Z,955.61
2018-03-20T12:22:27.337Z,955.41
2018-03-20T12:23:27.348Z,955.65
2018-03-20T12:24:27.361Z,955.59
2018-03-20T12:25:27.382Z,955.16
2018-03-20T12:26:27.383Z,955.59
2018-03-20T12:27:27.398Z,956.24
2018-03-20T12:28:27.408Z,953.41